FW5809 West Falmouth MA US current weather conditions

sailwx.info

Wind from 116 at 6 knots gusting 13

Air temperature 11.7° C
Dewpoint 11.1° C

Last reported at 2019-Dec-09 21:55 UTC.
Time now 2019-Dec-09 23:07 UTC

Location: N 41°36' W 070°37'.
View on Google Maps.

See reports from other nearby stations

  
Tides and Currents Weather Stations Pressure Air Temp Water Temp Dewpoint Dewpoint Depression Visibility Wind Speed Wind Dir Waves Ship Positions
date/time (UTC)wind fromknots sea level pressurealtimeterstation pressurevisibilityair tempwater tempwave heightnotes
2019-Dec-09 21:55 116 6 gusting 13 11.7
2019-Dec-09 21:45 125 5 gusting 14 11.7
2019-Dec-09 21:35 116 5 gusting 16 11.7
2019-Dec-09 21:25 104 5 gusting 13 11.7
2019-Dec-09 21:15 116 3 gusting 12 12.2
2019-Dec-09 21:05 122 6 gusting 18 12.2
2019-Dec-09 20:55 115 5 gusting 14 12.2
2019-Dec-09 20:45 129 7 gusting 23 12.2
2019-Dec-09 20:35 112 6 gusting 15 12.2
2019-Dec-09 20:25 121 6 gusting 13 11.7
2019-Dec-09 20:15 103 5 gusting 13 11.7
2019-Dec-09 20:05 118 5 gusting 13 11.1
2019-Dec-09 19:55 090 4 gusting 9 10.6
2019-Dec-09 19:45 097 4 gusting 9 11.1
2019-Dec-09 19:35 089 4 gusting 11 11.1
2019-Dec-09 19:25 099 4 gusting 11 11.7
2019-Dec-09 19:15 083 4 gusting 10 12.2
2019-Dec-09 19:05 113 4 gusting 13 12.2
2019-Dec-09 18:55 102 4 gusting 12 12.2
2019-Dec-09 18:45 117 6 gusting 14 11.7
2019-Dec-09 18:35 135 6 gusting 19 11.7
2019-Dec-09 18:25 125 6 gusting 17 11.7
2019-Dec-09 18:15 107 7 gusting 18 12.2
2019-Dec-09 18:05 115 7 gusting 18 12.2
2019-Dec-09 17:55 122 6 gusting 13 11.7
2019-Dec-09 17:45 106 6 gusting 19 11.7
2019-Dec-09 17:39 118 6 gusting 15 11.7
2019-Dec-09 17:25 099 5 gusting 13 11.7
2019-Dec-09 17:15 117 6 gusting 17 11.7
2019-Dec-09 17:05 106 6 gusting 15 11.7
2019-Dec-09 16:55 120 6 gusting 14 11.7
2019-Dec-09 16:45 121 4 gusting 13 11.7
2019-Dec-09 16:35 135 6 gusting 15 11.7
2019-Dec-09 16:25 112 5 gusting 15 11.7
2019-Dec-09 16:15 113 5 gusting 17 11.1
2019-Dec-09 16:05 125 5 gusting 14 11.1
2019-Dec-09 15:55 102 4 gusting 15 10.6
2019-Dec-09 15:45 106 5 gusting 15 10.6
2019-Dec-09 15:35 099 3 gusting 14 10.0
2019-Dec-09 15:25 103 3 gusting 8 10.0
2019-Dec-09 15:15 082 4 gusting 10 10.0
2019-Dec-09 15:05 094 4 gusting 13 10.0
2019-Dec-09 14:55 087 4 gusting 11 10.0
2019-Dec-09 14:45 091 3 gusting 8 9.4
2019-Dec-09 14:35 084 3 gusting 9 9.4
2019-Dec-09 14:25 083 3 gusting 6 10.0
2019-Dec-09 14:15 081 2 gusting 6 10.0
2019-Dec-09 14:05 094 3 gusting 9 10.0
2019-Dec-09 13:55 095 1 gusting 6 10.0
2019-Dec-09 13:45 111 2 gusting 11 10.0
2019-Dec-09 13:35 113 3 gusting 10 10.0
2019-Dec-09 13:25 112 2 gusting 7 10.0
2019-Dec-09 13:15 120 2 gusting 8 9.4
2019-Dec-09 13:05 123 2 gusting 8 9.4
2019-Dec-09 12:55 113 3 gusting 8 9.4
2019-Dec-09 12:45 113 3 gusting 8 9.4
2019-Dec-09 12:35 103 2 gusting 8 9.4
2019-Dec-09 12:25 103 3 gusting 8 8.9
2019-Dec-09 12:15 088 1 gusting 6 8.9
2019-Dec-09 12:05 098 2 gusting 8 8.9
2019-Dec-09 11:55 102 2 gusting 7 8.9
2019-Dec-09 11:45 096 1 gusting 6 8.9
2019-Dec-09 11:35 083 1 gusting 6 8.9
2019-Dec-09 11:25 094 2 gusting 7 8.9
2019-Dec-09 11:15 122 1 gusting 6 8.9
2019-Dec-09 11:05 120 2 gusting 6 8.9
2019-Dec-09 10:55 108 2 gusting 7 8.9
2019-Dec-09 10:45 109 3 gusting 8 8.9
2019-Dec-09 10:35 107 2 gusting 10 8.9
2019-Dec-09 10:25 105 2 gusting 5 8.9
2019-Dec-09 10:15 097 1 gusting 6 8.9
2019-Dec-09 10:05 118 2 gusting 8 8.9
2019-Dec-09 09:55 109 2 gusting 7 8.3
2019-Dec-09 09:45 106 1 gusting 4 8.3
2019-Dec-09 09:35 108 1 gusting 5 8.3
2019-Dec-09 09:25 116 1 gusting 6 8.3
2019-Dec-09 09:15 098 1 gusting 4 8.3
2019-Dec-09 09:05 110 0 gusting 5 8.3
2019-Dec-09 08:55 124 2 gusting 5 8.3
2019-Dec-09 08:45 129 2 gusting 6 8.3
2019-Dec-09 08:35 135 1 gusting 7 8.3
2019-Dec-09 08:25 127 3 gusting 8 8.3
2019-Dec-09 08:15 148 2 gusting 8 7.8
2019-Dec-09 08:05 142 2 gusting 8 7.2
2019-Dec-09 07:55 127 2 gusting 6 7.2
2019-Dec-09 07:45 139 1 gusting 6 7.2
2019-Dec-09 07:35 112 3 gusting 10 7.2
2019-Dec-09 07:25 125 2 gusting 7 7.2
2019-Dec-09 07:15 160 3 gusting 8 7.2
2019-Dec-09 07:05 121 3 gusting 7 7.2
2019-Dec-09 06:55 130 2 gusting 6 7.2
2019-Dec-09 06:45 140 2 gusting 10 6.7
2019-Dec-09 06:35 156 2 gusting 11 7.2
2019-Dec-09 06:25 154 2 gusting 9 7.2
2019-Dec-09 06:15 141 2 gusting 9 6.7
2019-Dec-09 06:05 141 2 gusting 7 6.7
2019-Dec-09 05:55 146 4 gusting 12 7.2
2019-Dec-09 05:45 139 3 gusting 9 7.2
2019-Dec-09 05:35 146 4 gusting 13 6.7
2019-Dec-09 05:25 149 3 gusting 9 6.7
2019-Dec-09 05:15 130 3 gusting 8 6.7
2019-Dec-09 05:05 129 2 gusting 7 6.7
2019-Dec-09 04:55 135 3 gusting 11 6.7
2019-Dec-09 04:45 133 3 gusting 11 6.7
2019-Dec-09 04:35 132 3 gusting 9 6.7
2019-Dec-09 04:25 143 3 gusting 10 6.1
2019-Dec-09 04:15 153 4 gusting 13 6.1
2019-Dec-09 04:05 134 3 gusting 12 6.1
2019-Dec-09 03:55 138 3 gusting 9 6.1
2019-Dec-09 03:45 137 3 gusting 10 6.1
2019-Dec-09 03:35 141 3 gusting 11 6.1
2019-Dec-09 03:25 148 2 gusting 12 6.1
2019-Dec-09 03:15 125 1 gusting 9 5.6
2019-Dec-09 03:05 125 3 gusting 10 5.6
2019-Dec-09 02:55 141 3 gusting 7 5.6
2019-Dec-09 02:45 134 3 gusting 11 5.6
2019-Dec-09 02:35 138 2 gusting 8 5.0
2019-Dec-09 02:25 114 2 gusting 8 5.0
2019-Dec-09 02:15 123 2 gusting 9 5.0
2019-Dec-09 02:05 138 2 gusting 8 5.0
2019-Dec-09 01:55 131 3 gusting 8 4.4
2019-Dec-09 01:45 125 2 gusting 6 4.4
2019-Dec-09 01:35 134 2 gusting 7 4.4
2019-Dec-09 01:25 127 1 gusting 8 4.4
2019-Dec-09 01:15 128 3 gusting 9 4.4
2019-Dec-09 01:05 123 2 gusting 10 3.9
2019-Dec-09 00:55 125 2 gusting 8 3.9
2019-Dec-09 00:45 136 2 gusting 9 3.3
2019-Dec-09 00:35 139 2 gusting 8 3.3
2019-Dec-09 00:25 124 1 gusting 6 3.3
2019-Dec-09 00:15 115 3 gusting 8 2.8
2019-Dec-09 00:05 126 2 gusting 6 2.8
2019-Dec-08 23:55 119 2 gusting 9 2.8
2019-Dec-08 23:45 112 2 gusting 6 2.8
2019-Dec-08 23:35 121 2 gusting 8 2.8
2019-Dec-08 23:25 111 1 gusting 6 2.8
2019-Dec-08 23:15 129 2 gusting 7 2.8
2019-Dec-08 23:05 115 2 gusting 8 2.8
2019-Dec-08 22:55 123 2 gusting 9 2.8
2019-Dec-08 22:45 116 2 gusting 9 2.8
2019-Dec-08 22:35 144 2 gusting 10 2.2
2019-Dec-08 22:25 137 1 gusting 5 2.2
2019-Dec-08 22:15 142 2 gusting 6 2.2
2019-Dec-08 22:05 126 2 gusting 6 2.2
2019-Dec-08 21:55 148 1 gusting 6 2.2
2019-Dec-08 21:45 133 2 gusting 6 2.2
2019-Dec-08 21:35 145 2 gusting 6 1.7
2019-Dec-08 21:25 139 2 gusting 6 1.7
2019-Dec-08 21:15 153 1 gusting 4 1.7
2019-Dec-08 21:05 155 2 gusting 6 1.7
2019-Dec-08 20:55 134 1 gusting 6 1.7
2019-Dec-08 20:45 140 1 gusting 7 1.7
2019-Dec-08 20:35 177 1 gusting 7 2.2
2019-Dec-08 20:25 158 2 gusting 8 1.7
2019-Dec-08 20:15 152 2 gusting 7 1.7
2019-Dec-08 20:05 153 2 gusting 10 1.7
2019-Dec-08 19:55 125 3 gusting 8 1.7
2019-Dec-08 19:45 153 3 gusting 10 2.2
2019-Dec-08 19:35 175 3 gusting 7 2.2
2019-Dec-08 19:25 149 1 gusting 9 2.2
2019-Dec-08 19:15 172 3 gusting 7 2.2
2019-Dec-08 19:05 189 2 gusting 10 2.2
2019-Dec-08 18:55 183 2 gusting 9 2.8
2019-Dec-08 18:45 188 4 gusting 12 2.2
2019-Dec-08 18:35 207 3 gusting 8 2.2
2019-Dec-08 18:25 194 3 gusting 7 2.2
2019-Dec-08 18:15 188 3 gusting 7 2.2
2019-Dec-08 18:05 186 2 gusting 8 2.2
2019-Dec-08 17:55 177 3 gusting 9 2.2
2019-Dec-08 17:45 170 1 gusting 6 2.2
2019-Dec-08 17:35 188 3 gusting 6 2.2
2019-Dec-08 17:25 204 2 gusting 6 1.7
2019-Dec-08 17:15 187 2 gusting 6 1.7
2019-Dec-08 17:05 194 1 gusting 4 1.7
2019-Dec-08 16:55 171 1 gusting 3 2.2
2019-Dec-08 16:45 181 1 gusting 5 1.7
2019-Dec-08 16:35 181 1 gusting 5 1.1
2019-Dec-08 16:25 188 1 gusting 5 1.1
2019-Dec-08 16:15 201 2 gusting 6 0.6
2019-Dec-08 16:05 174 1 gusting 6 0.6
2019-Dec-08 15:55 157 1 gusting 4 0.6
2019-Dec-08 15:45 182 1 gusting 3 1.1
2019-Dec-08 15:35 113 2 gusting 7 -0.0
2019-Dec-08 15:25 200 2 gusting 6 -0.6
2019-Dec-08 15:15 201 1 gusting 4 -0.6
2019-Dec-08 15:05 178 1 gusting 4 -0.6
2019-Dec-08 14:55 150 0 gusting 2 -0.0
2019-Dec-08 14:45 137 0 gusting 2 -0.0
2019-Dec-08 14:35 148 0 gusting 3 -0.6
2019-Dec-08 14:25 155 0 gusting 2 -1.1
2019-Dec-08 14:15 179 0 gusting 2 -1.1
2019-Dec-08 14:05 082 0 gusting 3 -1.1
2019-Dec-08 13:55 019 -1.7
2019-Dec-08 13:45 010 -2.2
2019-Dec-08 13:35 002 0 gusting 1 -2.8
2019-Dec-08 13:25 289 -3.3
2019-Dec-08 13:15 006 -3.9
2019-Dec-08 13:05 336 0 gusting 1 -5.6
2019-Dec-08 12:55 051 -6.1
2019-Dec-08 12:45 348 0 gusting 0 -6.7
2019-Dec-08 12:35 358 0 gusting 1 -7.2
2019-Dec-08 12:25 290 -7.2
2019-Dec-08 12:15 339 -7.8
2019-Dec-08 12:05 344 0 gusting 0 -7.8
2019-Dec-08 11:55 348 -7.8
2019-Dec-08 11:45 250 -7.8
2019-Dec-08 11:35 310 -7.8
2019-Dec-08 11:25 023 -7.2
2019-Dec-08 11:15 176 -7.2
2019-Dec-08 11:05 008 -7.2
2019-Dec-08 10:55 251 -7.2
2019-Dec-08 10:45 252 -7.2
2019-Dec-08 10:35 293 -6.7
2019-Dec-08 10:25 358 -6.7
2019-Dec-08 10:15 -6.7
2019-Dec-08 10:05 002 -6.7
2019-Dec-08 09:55 015 0 gusting 1 -6.7
2019-Dec-08 09:45 006 0 gusting 1 -6.7
2019-Dec-08 09:35 121 -6.1
2019-Dec-08 09:25 106 -6.1
2019-Dec-08 09:15 -6.1
2019-Dec-08 09:05 008 -6.1
2019-Dec-08 08:55 033 -5.6
2019-Dec-08 08:45 076 -5.6
2019-Dec-08 08:35 005 -5.6
2019-Dec-08 08:25 170 -5.0
2019-Dec-08 08:15 174 -5.0
2019-Dec-08 08:05 072 0 gusting 1 -4.4
2019-Dec-08 07:55 196 0 gusting 3 -4.4
2019-Dec-08 07:45 196 0 gusting 2 -4.4
2019-Dec-08 07:35 203 0 gusting 1 -4.4
2019-Dec-08 07:25 186 0 gusting 3 -4.4
2019-Dec-08 07:15 213 0 gusting 4 -4.4
2019-Dec-08 07:05 135 0 gusting 3 -3.9
2019-Dec-08 06:55 156 0 gusting 3 -3.9
2019-Dec-08 06:45 173 0 gusting 4 -3.9
2019-Dec-08 06:35 214 0 gusting 3 -3.9
2019-Dec-08 06:25 156 0 gusting 3 -3.9
2019-Dec-08 06:15 312 0 gusting 3 -3.9
2019-Dec-08 06:05 168 0 gusting 3 -3.9
2019-Dec-08 05:55 195 1 gusting 4 -3.9
2019-Dec-08 05:45 169 0 gusting 4 -3.3
2019-Dec-08 05:35 181 1 gusting 4 -3.3
2019-Dec-08 05:25 194 0 gusting 3 -3.3
2019-Dec-08 05:15 142 0 gusting 3 -3.3
2019-Dec-08 05:05 181 0 gusting 3 -3.3
2019-Dec-08 04:55 156 0 gusting 6 -3.3
2019-Dec-08 04:45 191 1 gusting 4 -3.3
2019-Dec-08 04:35 171 0 gusting 3 -3.3
2019-Dec-08 04:25 164 0 gusting 2 -3.3
2019-Dec-08 04:15 166 0 gusting 3 -3.3
2019-Dec-08 04:05 179 0 gusting 2 -2.8
2019-Dec-08 03:55 182 1 gusting 4 -2.8
2019-Dec-08 03:45 187 1 gusting 4 -2.8
2019-Dec-08 03:35 195 0 gusting 4 -2.8
2019-Dec-08 03:25 139 1 gusting 4 -2.8
2019-Dec-08 03:15 220 1 gusting 7 -2.8
2019-Dec-08 03:05 186 1 gusting 3 -2.8
2019-Dec-08 02:55 177 0 gusting 4 -2.8
2019-Dec-08 02:45 213 2 gusting 7 -2.8
2019-Dec-08 02:35 206 1 gusting 6 -2.2
2019-Dec-08 02:25 177 1 gusting 4 -2.2
2019-Dec-08 02:15 180 1 gusting 3 -2.2
2019-Dec-08 02:05 180 1 gusting 4 -2.8
2019-Dec-08 01:55 216 0 gusting 4 -2.2
2019-Dec-08 01:45 157 0 gusting 4 -2.2
2019-Dec-08 01:35 214 1 gusting 5 -2.2
2019-Dec-08 01:25 194 0 gusting 3 -2.2
2019-Dec-08 01:15 163 0 gusting 4 -2.2
2019-Dec-08 01:05 215 0 gusting 6 -2.2
2019-Dec-08 00:55 205 0 gusting 5 -1.7
2019-Dec-08 00:45 209 1 gusting 4 -1.7
2019-Dec-08 00:35 202 1 gusting 5 -1.7
2019-Dec-08 00:25 199 0 gusting 3 -1.7
2019-Dec-08 00:15 212 1 gusting 7 -1.7
2019-Dec-08 00:05 189 0 gusting 2 -1.7
2019-Dec-07 23:55 199 0 gusting 4 -1.7
2019-Dec-07 23:45 203 0 gusting 3 -1.7
2019-Dec-07 23:35 204 0 gusting 3 -1.7
2019-Dec-07 23:25 194 0 gusting 4 -1.7
2019-Dec-07 23:15 103 0 gusting 2 -1.7
2019-Dec-07 23:05 136 0 gusting 2 -1.7